createdAt,value
2022-08-25T00:00:22.111Z,19.93
2022-08-25T00:03:05.442Z,19.91
2022-08-25T00:05:33.731Z,19.92
2022-08-25T00:08:03.820Z,19.93
2022-08-25T00:10:37.305Z,19.95
2022-08-25T00:13:05.993Z,19.98
2022-08-25T00:15:34.261Z,19.99
2022-08-25T00:18:02.852Z,20.00
2022-08-25T00:20:32.052Z,20.01
2022-08-25T00:23:01.764Z,20.01
2022-08-25T00:25:29.989Z,20.03
2022-08-25T00:27:59.323Z,20.04
2022-08-25T00:30:27.767Z,20.05
2022-08-25T00:32:57.529Z,20.07
2022-08-25T00:35:26.666Z,20.07
2022-08-25T00:37:55.364Z,20.08
2022-08-25T00:40:26.551Z,20.08
2022-08-25T00:42:56.315Z,20.07
2022-08-25T00:45:24.966Z,20.08
2022-08-25T00:47:53.072Z,20.07
2022-08-25T00:50:22.979Z,20.08
2022-08-25T00:52:58.830Z,20.08
2022-08-25T00:55:44.935Z,20.09
2022-08-25T00:58:19.324Z,20.09
2022-08-25T01:00:51.035Z,20.09
2022-08-25T01:03:20.583Z,20.09
2022-08-25T01:05:53.746Z,20.09
2022-08-25T01:08:29.135Z,20.09
2022-08-25T01:10:59.673Z,20.10
2022-08-25T01:13:42.936Z,20.10
2022-08-25T01:16:13.652Z,20.09
2022-08-25T01:18:47.223Z,20.02
2022-08-25T01:21:16.663Z,19.91
2022-08-25T01:23:45.682Z,19.84
2022-08-25T01:26:30.513Z,19.79
2022-08-25T01:29:20.982Z,19.80
2022-08-25T01:31:51.248Z,19.80
2022-08-25T01:34:21.623Z,19.82
2022-08-25T01:36:50.000Z,19.84
2022-08-25T01:39:18.514Z,19.87
2022-08-25T01:42:05.900Z,19.91
2022-08-25T01:44:37.351Z,19.94
2022-08-25T01:47:07.384Z,19.97
2022-08-25T01:49:36.054Z,20.00
2022-08-25T01:52:12.854Z,20.03
2022-08-25T01:54:40.773Z,20.06
2022-08-25T01:57:09.627Z,20.09
2022-08-25T01:59:37.908Z,20.12
2022-08-25T02:02:06.601Z,20.13
2022-08-25T02:04:34.981Z,20.14
2022-08-25T02:07:06.740Z,20.13
2022-08-25T02:09:36.217Z,20.14
2022-08-25T02:12:04.943Z,20.14
2022-08-25T02:14:33.141Z,20.13
2022-08-25T02:17:01.218Z,20.13
2022-08-25T02:19:31.538Z,20.11
2022-08-25T02:22:00.685Z,20.07
2022-08-25T02:24:29.370Z,20.07
2022-08-25T02:26:58.322Z,20.07
2022-08-25T02:29:26.578Z,20.06
2022-08-25T02:31:54.572Z,20.06
2022-08-25T02:34:23.452Z,20.06
2022-08-25T02:36:51.526Z,20.05
2022-08-25T02:39:19.682Z,20.04
2022-08-25T02:41:47.670Z,20.04
2022-08-25T02:44:15.664Z,20.04
2022-08-25T02:46:43.794Z,20.04
2022-08-25T02:49:11.970Z,20.05
2022-08-25T02:51:40.140Z,20.04
2022-08-25T02:54:08.207Z,20.04
2022-08-25T02:56:36.437Z,20.04
2022-08-25T02:59:05.805Z,20.04
2022-08-25T03:01:34.109Z,20.04
2022-08-25T03:04:02.672Z,20.04
2022-08-25T03:06:30.773Z,20.05
2022-08-25T03:08:59.087Z,20.06
2022-08-25T03:11:27.542Z,20.08
2022-08-25T03:13:56.664Z,20.07
2022-08-25T03:16:27.851Z,20.07
2022-08-25T03:18:57.538Z,20.07
2022-08-25T03:21:26.439Z,20.07
2022-08-25T03:23:54.578Z,20.07
2022-08-25T03:26:42.102Z,20.07
2022-08-25T03:29:11.406Z,20.07
2022-08-25T03:31:39.926Z,20.07
2022-08-25T03:34:08.154Z,20.08
2022-08-25T03:36:36.379Z,20.07
2022-08-25T03:39:05.247Z,20.07
2022-08-25T03:41:34.213Z,20.08
2022-08-25T03:44:05.082Z,20.08
2022-08-25T03:46:59.376Z,20.09
2022-08-25T03:49:27.449Z,20.09
2022-08-25T03:51:59.612Z,20.09
2022-08-25T03:54:28.094Z,20.09
2022-08-25T03:56:56.228Z,20.09
2022-08-25T03:59:24.498Z,20.08
2022-08-25T04:01:55.147Z,20.09
2022-08-25T04:04:23.868Z,20.10
2022-08-25T04:06:53.090Z,20.12
2022-08-25T04:09:21.117Z,20.13
2022-08-25T04:11:52.969Z,20.15
2022-08-25T04:14:23.898Z,20.15
2022-08-25T04:16:53.156Z,20.17
2022-08-25T04:19:22.397Z,20.19
2022-08-25T04:21:51.908Z,20.20
2022-08-25T04:24:24.711Z,20.22
2022-08-25T04:26:53.328Z,20.24
2022-08-25T04:29:23.939Z,20.27
2022-08-25T04:31:54.029Z,20.30
2022-08-25T04:34:29.543Z,20.34
2022-08-25T04:37:01.880Z,20.37
2022-08-25T04:39:30.384Z,20.40
2022-08-25T04:42:00.667Z,20.44
2022-08-25T04:44:30.690Z,20.49
2022-08-25T04:46:59.257Z,20.53
2022-08-25T04:49:28.405Z,20.58
2022-08-25T04:51:57.905Z,20.65
2022-08-25T04:54:26.694Z,20.79
2022-08-25T04:56:58.479Z,20.89
2022-08-25T04:59:30.383Z,20.96
2022-08-25T05:02:03.483Z,21.10
2022-08-25T05:04:33.070Z,21.33
2022-08-25T05:07:02.184Z,21.57
2022-08-25T05:09:32.278Z,21.87
2022-08-25T05:12:04.905Z,22.10
2022-08-25T05:14:34.501Z,22.18
2022-08-25T05:17:03.083Z,22.18
2022-08-25T05:19:32.182Z,22.14
2022-08-25T05:22:00.253Z,22.09
2022-08-25T05:24:28.430Z,22.02
2022-08-25T05:26:57.613Z,21.95
2022-08-25T05:29:27.219Z,21.86
2022-08-25T05:31:55.462Z,21.80
2022-08-25T05:34:24.892Z,21.73
2022-08-25T05:36:53.122Z,21.67
2022-08-25T05:39:21.111Z,21.62
2022-08-25T05:41:49.248Z,21.58
2022-08-25T05:44:20.901Z,21.52
2022-08-25T05:46:50.168Z,21.47
2022-08-25T05:49:18.942Z,21.42
2022-08-25T05:51:47.027Z,21.38
2022-08-25T05:54:15.307Z,21.37
2022-08-25T05:56:43.499Z,21.34
2022-08-25T05:59:11.532Z,21.33
2022-08-25T06:01:58.092Z,21.32
2022-08-25T06:04:26.287Z,21.31
2022-08-25T06:06:55.093Z,21.30
2022-08-25T06:09:24.510Z,21.28
2022-08-25T06:11:55.022Z,21.27
2022-08-25T06:14:25.064Z,21.25
2022-08-25T06:16:53.346Z,21.25
2022-08-25T06:19:23.667Z,21.26
2022-08-25T06:22:01.044Z,21.27
2022-08-25T06:24:29.718Z,21.27
2022-08-25T06:26:58.158Z,21.29
2022-08-25T06:29:26.810Z,21.31
2022-08-25T06:31:55.121Z,21.34
2022-08-25T06:34:24.022Z,21.38
2022-08-25T06:36:52.608Z,21.41
2022-08-25T06:39:21.616Z,21.44
2022-08-25T06:41:54.989Z,21.48
2022-08-25T06:44:27.825Z,21.50
2022-08-25T06:46:56.063Z,21.52
2022-08-25T06:49:29.274Z,21.56
2022-08-25T06:51:59.440Z,21.57
2022-08-25T06:54:27.671Z,21.57
2022-08-25T06:56:55.740Z,21.60
2022-08-25T06:59:32.298Z,21.63
2022-08-25T07:02:03.163Z,21.67
2022-08-25T07:04:33.733Z,21.76
2022-08-25T07:07:02.158Z,21.88
2022-08-25T07:09:30.630Z,21.99
2022-08-25T07:11:59.120Z,22.06
2022-08-25T07:14:27.294Z,22.18
2022-08-25T07:16:55.770Z,22.27
2022-08-25T07:19:24.038Z,22.31
2022-08-25T07:21:53.288Z,22.28
2022-08-25T07:24:22.844Z,22.25
2022-08-25T07:26:51.661Z,22.24
2022-08-25T07:29:31.718Z,22.20
2022-08-25T07:32:02.976Z,22.11
2022-08-25T07:34:52.562Z,22.03
2022-08-25T07:40:19.027Z,21.84
2022-08-25T07:42:49.666Z,21.74
2022-08-25T07:45:20.800Z,21.66
2022-08-25T07:47:51.652Z,21.63
2022-08-25T07:50:21.400Z,21.57
2022-08-25T07:52:55.012Z,21.53
2022-08-25T07:55:28.934Z,21.52
2022-08-25T07:57:58.138Z,21.51
2022-08-25T08:00:29.950Z,21.46
2022-08-25T08:02:59.244Z,21.41
2022-08-25T08:05:28.603Z,21.38
2022-08-25T08:07:57.390Z,21.41
2022-08-25T08:10:53.566Z,21.41
2022-08-25T08:13:17.711Z,21.41
2022-08-25T08:15:47.528Z,21.44
2022-08-25T08:18:16.284Z,21.44
2022-08-25T08:20:46.960Z,21.42
2022-08-25T08:23:16.665Z,21.44
2022-08-25T08:25:44.849Z,21.45
2022-08-25T08:28:12.963Z,21.46
2022-08-25T08:30:53.734Z,21.45
2022-08-25T08:33:23.244Z,21.47
2022-08-25T08:36:05.192Z,21.49
2022-08-25T08:38:37.348Z,21.55
2022-08-25T08:41:29.829Z,21.69
2022-08-25T08:44:12.042Z,21.97
2022-08-25T08:46:56.652Z,22.27
2022-08-25T08:49:41.032Z,22.41
2022-08-25T08:52:15.831Z,22.55
2022-08-25T08:54:50.660Z,22.74
2022-08-25T08:57:23.951Z,22.80
2022-08-25T08:59:58.332Z,22.85
2022-08-25T09:02:39.119Z,22.84
2022-08-25T09:05:23.328Z,22.80
2022-08-25T09:07:56.265Z,22.88
2022-08-25T09:10:27.131Z,22.90
2022-08-25T09:13:01.349Z,22.88
2022-08-25T09:16:13.218Z,22.90
2022-08-25T09:19:21.216Z,22.81
2022-08-25T09:22:35.624Z,22.76
2022-08-25T09:25:10.715Z,22.74
2022-08-25T09:28:00.961Z,22.75
2022-08-25T09:30:45.842Z,22.77
2022-08-25T09:33:21.177Z,22.81
2022-08-25T09:35:53.598Z,22.88
2022-08-25T09:38:23.084Z,22.99
2022-08-25T09:40:56.240Z,23.17
2022-08-25T09:43:24.291Z,23.33
2022-08-25T09:46:03.293Z,23.49
2022-08-25T09:48:41.105Z,23.58
2022-08-25T09:51:21.327Z,23.68
2022-08-25T09:53:54.500Z,23.80
2022-08-25T09:56:26.045Z,23.95
2022-08-25T09:59:03.082Z,24.08
2022-08-25T10:01:34.824Z,24.16
2022-08-25T10:04:06.040Z,24.21
2022-08-25T10:06:42.968Z,24.25
2022-08-25T10:09:23.389Z,24.32
2022-08-25T10:11:57.963Z,24.36
2022-08-25T10:14:26.081Z,24.39
2022-08-25T10:17:13.711Z,24.38
2022-08-25T10:19:42.924Z,24.39
2022-08-25T10:22:32.663Z,24.36
2022-08-25T10:25:04.679Z,24.34
2022-08-25T10:28:06.065Z,24.37
2022-08-25T10:30:55.817Z,24.42
2022-08-25T10:33:45.606Z,24.45
2022-08-25T10:36:37.382Z,24.46
2022-08-25T10:39:34.110Z,24.52
2022-08-25T10:42:01.915Z,24.54
2022-08-25T10:45:18.180Z,24.57
2022-08-25T10:47:55.725Z,24.63
2022-08-25T10:50:45.586Z,24.66
2022-08-25T10:53:28.481Z,24.65
2022-08-25T10:56:07.159Z,24.65
2022-08-25T10:58:54.501Z,24.66
2022-08-25T11:02:07.340Z,24.67
2022-08-25T11:05:10.036Z,24.70
2022-08-25T11:07:46.313Z,24.75
2022-08-25T11:10:25.817Z,24.83
2022-08-25T11:12:57.886Z,24.94
2022-08-25T11:15:37.278Z,25.05
2022-08-25T11:18:15.048Z,25.17
2022-08-25T11:21:00.673Z,25.31
2022-08-25T11:23:35.944Z,25.45
2022-08-25T11:26:11.751Z,25.54
2022-08-25T11:29:06.124Z,25.64
2022-08-25T11:32:01.255Z,25.74
2022-08-25T11:34:35.849Z,25.85
2022-08-25T11:37:14.578Z,25.94
2022-08-25T11:40:19.159Z,26.03
2022-08-25T11:42:58.797Z,26.13
2022-08-25T11:45:54.336Z,26.22
2022-08-25T11:48:30.855Z,26.28
2022-08-25T11:51:11.263Z,26.32
2022-08-25T11:53:44.002Z,26.39
2022-08-25T11:56:40.195Z,26.43
2022-08-25T11:59:09.338Z,26.48
2022-08-25T12:01:40.559Z,26.47
2022-08-25T12:04:34.072Z,26.42
2022-08-25T12:07:19.283Z,26.38
2022-08-25T12:09:51.099Z,26.35
2022-08-25T12:12:38.256Z,26.30
2022-08-25T12:15:27.074Z,26.31
2022-08-25T12:18:33.948Z,26.36
2022-08-25T12:21:02.704Z,26.38
2022-08-25T12:24:04.283Z,26.40
2022-08-25T12:26:48.020Z,26.42
2022-08-25T12:29:31.571Z,26.39
2022-08-25T12:32:11.722Z,26.37
2022-08-25T12:35:03.943Z,26.37
2022-08-25T12:37:32.045Z,26.37
2022-08-25T12:40:04.386Z,26.38
2022-08-25T12:42:39.796Z,26.37
2022-08-25T12:45:31.829Z,26.39
2022-08-25T12:48:28.502Z,26.43
2022-08-25T12:50:58.063Z,26.47
2022-08-25T12:53:36.438Z,26.49
2022-08-25T12:56:19.132Z,26.52
2022-08-25T12:59:02.533Z,26.55
2022-08-25T13:02:03.215Z,26.59
2022-08-25T13:05:16.527Z,26.61
2022-08-25T13:08:14.073Z,26.60
2022-08-25T13:10:56.528Z,26.62
2022-08-25T13:13:24.483Z,26.62
2022-08-25T13:16:02.193Z,26.65
2022-08-25T13:18:34.121Z,26.70
2022-08-25T13:21:14.015Z,26.73
2022-08-25T13:23:46.043Z,26.76
2022-08-25T13:26:21.438Z,26.80
2022-08-25T13:29:17.678Z,26.83
2022-08-25T13:31:58.147Z,26.83
2022-08-25T13:34:44.394Z,26.82
2022-08-25T13:37:32.709Z,26.81
2022-08-25T13:40:17.782Z,26.79
2022-08-25T13:42:55.619Z,26.79
2022-08-25T13:45:28.899Z,26.77
2022-08-25T13:48:00.010Z,26.75
2022-08-25T13:50:30.954Z,26.76
2022-08-25T13:53:13.453Z,26.77
2022-08-25T13:55:50.648Z,26.77
2022-08-25T13:58:39.334Z,26.78
2022-08-25T14:01:48.337Z,26.78
2022-08-25T14:04:29.625Z,26.79
2022-08-25T14:07:21.137Z,26.80
2022-08-25T14:09:56.137Z,26.79
2022-08-25T14:12:31.090Z,26.78
2022-08-25T14:15:00.691Z,26.78
2022-08-25T14:17:39.695Z,26.71
2022-08-25T14:20:22.067Z,26.64
2022-08-25T14:22:57.877Z,26.57
2022-08-25T14:25:30.658Z,26.50
2022-08-25T14:28:10.720Z,26.43
2022-08-25T14:30:51.829Z,26.36
2022-08-25T14:33:23.685Z,26.29
2022-08-25T14:35:53.901Z,26.24
2022-08-25T14:38:23.982Z,26.17
2022-08-25T14:40:53.876Z,26.10
2022-08-25T14:43:24.060Z,26.05
2022-08-25T14:46:03.585Z,26.01
2022-08-25T14:48:43.195Z,25.96
2022-08-25T14:51:13.725Z,25.92
2022-08-25T14:53:43.673Z,25.88
2022-08-25T14:56:12.119Z,25.83
2022-08-25T14:58:51.063Z,25.76
2022-08-25T15:01:28.767Z,25.68
2022-08-25T15:04:07.353Z,25.61
2022-08-25T15:06:36.705Z,25.55
2022-08-25T15:09:11.365Z,25.52
2022-08-25T15:11:50.778Z,25.50
2022-08-25T15:14:28.923Z,25.49
2022-08-25T15:17:02.725Z,25.47
2022-08-25T15:19:31.264Z,25.45
2022-08-25T15:21:59.756Z,25.45
2022-08-25T15:24:29.022Z,25.44
2022-08-25T15:27:04.123Z,25.43
2022-08-25T15:29:35.052Z,25.41
2022-08-25T15:32:08.846Z,25.40
2022-08-25T15:34:37.662Z,25.37
2022-08-25T15:37:14.046Z,25.35
2022-08-25T15:39:44.479Z,25.32
2022-08-25T15:42:13.020Z,25.30
2022-08-25T15:44:41.796Z,25.26
2022-08-25T15:47:22.557Z,25.22
2022-08-25T15:49:51.777Z,25.17
2022-08-25T15:52:19.856Z,25.13
2022-08-25T15:54:48.025Z,25.06
2022-08-25T15:57:24.322Z,24.97
2022-08-25T15:59:53.432Z,24.89
2022-08-25T16:02:22.622Z,24.85
2022-08-25T16:04:51.774Z,24.82
2022-08-25T16:07:20.574Z,24.79
2022-08-25T16:09:50.937Z,24.78
2022-08-25T16:12:19.267Z,24.74
2022-08-25T16:14:47.719Z,24.73
2022-08-25T16:17:16.735Z,24.73
2022-08-25T16:19:45.256Z,24.71
2022-08-25T16:22:13.809Z,24.70
2022-08-25T16:24:46.488Z,24.70
2022-08-25T16:27:15.216Z,24.69
2022-08-25T16:29:44.559Z,24.66
2022-08-25T16:32:14.436Z,24.64
2022-08-25T16:34:43.085Z,24.62
2022-08-25T16:37:13.674Z,24.59
2022-08-25T16:39:46.155Z,24.59
2022-08-25T16:42:14.743Z,24.57
2022-08-25T16:44:42.965Z,24.55
2022-08-25T16:47:13.945Z,24.51
2022-08-25T16:49:42.789Z,24.47
2022-08-25T16:52:30.987Z,24.41
2022-08-25T16:55:28.363Z,24.35
2022-08-25T16:58:08.703Z,24.27
2022-08-25T17:00:41.563Z,24.22
2022-08-25T17:03:13.230Z,24.16
2022-08-25T17:05:42.884Z,24.10
2022-08-25T17:08:30.687Z,24.03
2022-08-25T17:11:08.704Z,23.97
2022-08-25T17:13:39.571Z,23.92
2022-08-25T17:16:14.591Z,23.88
2022-08-25T17:18:43.707Z,23.84
2022-08-25T17:21:24.466Z,23.80
2022-08-25T17:23:55.602Z,23.76
2022-08-25T17:26:27.920Z,23.72
2022-08-25T17:28:59.426Z,23.68
2022-08-25T17:31:29.867Z,23.65
2022-08-25T17:33:59.583Z,23.60
2022-08-25T17:36:28.155Z,23.57
2022-08-25T17:38:56.851Z,23.54
2022-08-25T17:41:26.134Z,23.51
2022-08-25T17:43:54.350Z,23.47
2022-08-25T17:46:22.527Z,23.44
2022-08-25T17:48:50.801Z,23.41
2022-08-25T17:51:18.991Z,23.37
2022-08-25T17:53:48.310Z,23.35
2022-08-25T17:56:20.006Z,23.32
2022-08-25T17:58:48.525Z,23.28
2022-08-25T18:01:27.193Z,23.25
2022-08-25T18:03:57.546Z,23.24
2022-08-25T18:06:27.044Z,23.21
2022-08-25T18:08:59.267Z,23.19
2022-08-25T18:11:28.937Z,23.18
2022-08-25T18:13:58.845Z,23.14
2022-08-25T18:16:27.579Z,23.13
2022-08-25T18:18:56.160Z,23.11
2022-08-25T18:21:30.227Z,23.09
2022-08-25T18:23:59.204Z,23.06
2022-08-25T18:26:27.974Z,23.02
2022-08-25T18:28:56.007Z,22.98
2022-08-25T18:31:25.449Z,22.94
2022-08-25T18:33:53.627Z,22.90
2022-08-25T18:36:21.680Z,22.86
2022-08-25T18:39:10.727Z,22.83
2022-08-25T18:41:45.161Z,22.79
2022-08-25T18:44:15.577Z,22.76
2022-08-25T18:46:45.429Z,22.72
2022-08-25T18:49:15.665Z,22.70
2022-08-25T18:51:45.083Z,22.67
2022-08-25T18:54:22.834Z,22.66
2022-08-25T18:56:53.481Z,22.65
2022-08-25T18:59:23.755Z,22.64
2022-08-25T19:01:54.230Z,22.63
2022-08-25T19:04:31.200Z,22.61
2022-08-25T19:07:02.051Z,22.60
2022-08-25T19:09:31.624Z,22.59
2022-08-25T19:12:01.159Z,22.58
2022-08-25T19:14:29.539Z,22.58
2022-08-25T19:17:00.926Z,22.58
2022-08-25T19:19:29.368Z,22.61
2022-08-25T19:21:58.299Z,22.65
2022-08-25T19:24:28.726Z,22.69
2022-08-25T19:26:58.109Z,22.74
2022-08-25T19:29:26.658Z,22.78
2022-08-25T19:32:01.111Z,22.81
2022-08-25T19:34:33.495Z,22.84
2022-08-25T19:37:04.589Z,22.87
2022-08-25T19:39:35.899Z,22.90
2022-08-25T19:42:08.112Z,22.92
2022-08-25T19:44:56.251Z,22.94
2022-08-25T19:47:24.454Z,22.94
2022-08-25T19:52:26.697Z,22.90
2022-08-25T19:54:54.924Z,22.88
2022-08-25T19:57:28.169Z,22.85
2022-08-25T20:00:21.462Z,22.81
2022-08-25T20:02:51.219Z,22.78
2022-08-25T20:05:23.815Z,22.76
2022-08-25T20:07:55.937Z,22.74
2022-08-25T20:10:31.720Z,22.74
2022-08-25T20:13:00.105Z,22.74
2022-08-25T20:15:28.277Z,22.75
2022-08-25T20:18:02.926Z,22.74
2022-08-25T20:20:32.443Z,22.74
2022-08-25T20:23:21.780Z,22.75
2022-08-25T20:25:51.699Z,22.75
2022-08-25T20:28:19.828Z,22.74
2022-08-25T20:30:47.895Z,22.73
2022-08-25T20:33:22.621Z,22.74
2022-08-25T20:35:53.182Z,22.74
2022-08-25T20:38:21.576Z,22.72
2022-08-25T20:40:49.862Z,22.72
2022-08-25T20:43:18.147Z,22.72
2022-08-25T20:45:49.393Z,22.72
2022-08-25T20:48:17.884Z,22.72
2022-08-25T20:50:45.924Z,22.73
2022-08-25T20:53:26.432Z,22.74
2022-08-25T20:55:54.656Z,22.75
2022-08-25T20:58:22.832Z,22.76
2022-08-25T21:00:52.028Z,22.78
2022-08-25T21:03:21.023Z,22.80
2022-08-25T21:05:53.518Z,22.83
2022-08-25T21:08:23.616Z,22.88
2022-08-25T21:10:51.990Z,22.90
2022-08-25T21:13:20.058Z,22.93
2022-08-25T21:15:50.913Z,22.94
2022-08-25T21:18:19.016Z,22.96
2022-08-25T21:20:47.342Z,23.00
2022-08-25T21:23:15.415Z,23.01
2022-08-25T21:25:43.818Z,23.02
2022-08-25T21:28:12.648Z,23.00
2022-08-25T21:30:44.752Z,23.01
2022-08-25T21:33:15.787Z,23.01
2022-08-25T21:35:44.212Z,22.99
2022-08-25T21:38:15.382Z,22.97
2022-08-25T21:40:44.984Z,22.96
2022-08-25T21:43:13.260Z,22.95
2022-08-25T21:45:46.806Z,22.95
2022-08-25T21:48:15.781Z,22.95
2022-08-25T21:50:43.955Z,22.95
2022-08-25T21:53:12.057Z,22.94
2022-08-25T21:55:42.158Z,22.94
2022-08-25T21:58:10.364Z,22.91
2022-08-25T22:00:38.586Z,22.90
2022-08-25T22:03:07.696Z,22.89
2022-08-25T22:05:37.735Z,22.88
2022-08-25T22:08:05.870Z,22.86
2022-08-25T22:10:34.044Z,22.84
2022-08-25T22:13:04.131Z,22.83
2022-08-25T22:15:32.252Z,22.83
2022-08-25T22:18:00.556Z,22.82
2022-08-25T22:20:29.663Z,22.82
2022-08-25T22:22:58.150Z,22.82
2022-08-25T22:25:28.186Z,22.81
2022-08-25T22:27:57.336Z,22.81
2022-08-25T22:30:26.167Z,22.79
2022-08-25T22:32:59.278Z,22.78
2022-08-25T22:35:30.985Z,22.77
2022-08-25T22:38:01.047Z,22.75
2022-08-25T22:40:30.306Z,22.73
2022-08-25T22:42:58.328Z,22.71
2022-08-25T22:45:27.201Z,22.67
2022-08-25T22:47:55.600Z,22.64
2022-08-25T22:50:23.754Z,22.62
2022-08-25T22:52:53.876Z,22.58
2022-08-25T22:55:22.131Z,22.55
2022-08-25T22:57:50.313Z,22.51
2022-08-25T23:00:23.160Z,22.48
2022-08-25T23:02:53.385Z,22.45
2022-08-25T23:05:21.674Z,22.42
2022-08-25T23:07:50.750Z,22.39
2022-08-25T23:10:20.855Z,22.35
2022-08-25T23:12:48.880Z,22.31
2022-08-25T23:15:17.060Z,22.27
2022-08-25T23:17:45.025Z,22.23
2022-08-25T23:20:31.865Z,22.21
2022-08-25T23:23:01.315Z,22.17
2022-08-25T23:25:29.853Z,22.15
2022-08-25T23:27:58.805Z,22.12
2022-08-25T23:30:27.647Z,22.09
2022-08-25T23:32:58.394Z,22.08
2022-08-25T23:35:26.910Z,22.05
2022-08-25T23:37:58.565Z,22.03
2022-08-25T23:40:27.812Z,22.01
2022-08-25T23:42:55.930Z,22.00
2022-08-25T23:45:24.063Z,21.98
2022-08-25T23:47:54.020Z,21.98
2022-08-25T23:50:22.272Z,21.97
2022-08-25T23:52:50.505Z,21.97
2022-08-25T23:55:18.565Z,21.97
2022-08-25T23:57:46.745Z,21.96
